createdAt,value
2023-03-25T00:00:58.069Z,93.15
2023-03-25T00:06:09.197Z,93.08
2023-03-25T00:11:12.800Z,93.20
2023-03-25T00:16:16.915Z,93.31
2023-03-25T00:21:23.493Z,93.47
2023-03-25T00:26:53.780Z,93.77
2023-03-25T00:32:08.715Z,94.18
2023-03-25T00:37:12.309Z,94.29
2023-03-25T00:42:17.587Z,94.44
2023-03-25T00:47:23.914Z,94.29
2023-03-25T00:52:27.449Z,94.42
2023-03-25T00:58:10.515Z,94.23
2023-03-25T01:03:17.171Z,94.49
2023-03-25T01:08:25.863Z,94.35
2023-03-25T01:13:29.574Z,94.56
2023-03-25T01:18:38.128Z,94.60
2023-03-25T01:24:02.188Z,94.42
2023-03-25T01:29:05.684Z,94.88
2023-03-25T01:34:09.903Z,95.01
2023-03-25T01:39:18.878Z,95.08
2023-03-25T01:44:22.756Z,95.33
2023-03-25T01:49:33.390Z,95.45
2023-03-25T01:54:39.025Z,95.38
2023-03-25T01:59:42.467Z,95.25
2023-03-25T02:04:59.461Z,95.56
2023-03-25T02:10:08.028Z,95.68
2023-03-25T02:15:14.922Z,95.78
2023-03-25T02:20:47.052Z,95.76
2023-03-25T02:26:16.558Z,95.85
2023-03-25T02:31:54.139Z,96.13
2023-03-25T02:37:20.435Z,96.52
2023-03-25T02:42:50.101Z,96.72
2023-03-25T02:48:01.273Z,96.80
2023-03-25T02:53:23.960Z,96.70
2023-03-25T02:58:30.116Z,96.91
2023-03-25T03:03:33.678Z,96.83
2023-03-25T03:09:12.971Z,96.84
2023-03-25T03:15:08.457Z,96.81
2023-03-25T03:20:22.748Z,96.72
2023-03-25T03:25:54.788Z,96.98
2023-03-25T03:31:07.872Z,96.63
2023-03-25T03:36:25.534Z,97.09
2023-03-25T03:41:55.012Z,97.03
2023-03-25T03:47:04.974Z,96.90
2023-03-25T03:52:18.180Z,96.46
2023-03-25T03:57:32.760Z,96.88
2023-03-25T04:03:02.108Z,96.52
2023-03-25T04:08:15.086Z,97.04
2023-03-25T04:13:22.175Z,97.06
2023-03-25T04:18:28.701Z,97.69
2023-03-25T04:23:34.903Z,98.22
2023-03-25T04:29:00.199Z,98.64
2023-03-25T04:34:10.838Z,99.21
2023-03-25T04:39:44.851Z,98.82
2023-03-25T04:45:14.452Z,98.56
2023-03-25T04:50:29.202Z,98.24
2023-03-25T04:56:16.334Z,98.28
2023-03-25T05:01:31.141Z,98.83
2023-03-25T05:06:41.913Z,98.86
2023-03-25T05:11:46.525Z,99.41
2023-03-25T05:17:00.609Z,99.87
2023-03-25T05:22:04.839Z,99.94
2023-03-25T05:27:08.078Z,100.00
2023-03-25T05:32:19.095Z,100.00
2023-03-25T05:37:22.729Z,100.00
2023-03-25T05:42:26.141Z,100.00
2023-03-25T05:47:32.859Z,100.00
2023-03-25T05:52:37.213Z,100.00
2023-03-25T05:57:40.915Z,100.00
2023-03-25T06:02:47.364Z,100.00
2023-03-25T06:07:51.681Z,100.00
2023-03-25T06:12:55.255Z,100.00
2023-03-25T06:17:58.887Z,100.00
2023-03-25T06:23:06.826Z,100.00
2023-03-25T06:28:10.453Z,100.00
2023-03-25T06:33:43.289Z,100.00
2023-03-25T06:38:50.417Z,100.00
2023-03-25T06:43:56.240Z,100.00
2023-03-25T06:49:49.788Z,99.70
2023-03-25T06:54:53.387Z,99.12
2023-03-25T07:00:00.182Z,99.08
2023-03-25T07:05:05.589Z,98.94
2023-03-25T07:10:14.787Z,98.33
2023-03-25T07:15:18.353Z,97.77
2023-03-25T07:20:22.043Z,97.78
2023-03-25T07:25:25.628Z,97.55
2023-03-25T07:30:28.978Z,96.08
2023-03-25T07:35:35.170Z,94.57
2023-03-25T07:40:38.916Z,94.11
2023-03-25T07:45:55.903Z,93.84
2023-03-25T07:51:00.175Z,93.19
2023-03-25T07:56:03.959Z,92.94
2023-03-25T08:01:07.524Z,91.95
2023-03-25T08:06:11.042Z,91.53
2023-03-25T08:11:14.557Z,90.63
2023-03-25T08:16:18.176Z,90.31
2023-03-25T08:21:25.761Z,89.01
2023-03-25T08:26:29.815Z,87.15
2023-03-25T08:31:37.186Z,86.94
2023-03-25T08:36:43.411Z,85.18
2023-03-25T08:41:46.707Z,84.03
2023-03-25T08:46:50.307Z,81.89
2023-03-25T08:51:53.778Z,81.74
2023-03-25T08:56:57.183Z,81.79
2023-03-25T09:02:01.693Z,80.17
2023-03-25T09:07:12.575Z,78.68
2023-03-25T09:12:16.245Z,77.99
2023-03-25T09:17:20.280Z,77.02
2023-03-25T09:22:23.674Z,76.61
2023-03-25T09:27:27.116Z,76.21
2023-03-25T09:32:31.173Z,74.42
2023-03-25T09:37:34.569Z,73.98
2023-03-25T09:42:49.117Z,73.38
2023-03-25T09:47:56.597Z,73.83
2023-03-25T09:53:08.673Z,74.04
2023-03-25T09:58:28.287Z,72.78
2023-03-25T10:03:58.653Z,72.11
2023-03-25T10:09:34.694Z,72.44
2023-03-25T10:15:16.688Z,72.70
2023-03-25T10:20:34.666Z,72.52
2023-03-25T10:25:43.057Z,72.08
2023-03-25T10:30:52.990Z,71.41
2023-03-25T10:36:01.033Z,69.38
2023-03-25T10:41:22.861Z,69.81
2023-03-25T10:46:39.801Z,69.35
2023-03-25T10:51:44.203Z,69.87
2023-03-25T10:56:51.571Z,69.25
2023-03-25T11:01:56.743Z,68.30
2023-03-25T11:07:00.642Z,68.63
2023-03-25T11:12:06.819Z,68.19
2023-03-25T11:17:18.630Z,68.39
2023-03-25T11:22:30.695Z,68.40
2023-03-25T11:27:45.804Z,67.56
2023-03-25T11:33:20.925Z,67.04
2023-03-25T11:38:29.246Z,67.55
2023-03-25T11:43:40.119Z,67.79
2023-03-25T11:48:46.831Z,67.59
2023-03-25T11:54:00.082Z,67.55
2023-03-25T11:59:07.548Z,67.81
2023-03-25T12:04:16.441Z,67.68
2023-03-25T12:09:19.620Z,67.46
2023-03-25T12:14:56.756Z,68.08
2023-03-25T12:20:52.783Z,67.46
2023-03-25T12:26:17.275Z,67.14
2023-03-25T12:31:44.390Z,66.79
2023-03-25T12:37:15.314Z,67.20
2023-03-25T12:42:46.874Z,67.05
2023-03-25T12:47:57.196Z,66.92
2023-03-25T12:53:40.953Z,66.81
2023-03-25T12:59:23.787Z,66.63
2023-03-25T13:04:58.178Z,66.02
2023-03-25T13:10:23.430Z,68.95
2023-03-25T13:15:35.460Z,72.06
2023-03-25T13:20:49.771Z,73.46
2023-03-25T13:26:12.136Z,73.51
2023-03-25T13:31:25.982Z,74.07
2023-03-25T13:36:34.612Z,74.98
2023-03-25T13:42:03.189Z,75.54
2023-03-25T13:47:37.291Z,76.14
2023-03-25T13:52:46.497Z,76.03
2023-03-25T13:58:06.981Z,75.90
2023-03-25T14:03:37.381Z,75.64
2023-03-25T14:08:52.899Z,75.85
2023-03-25T14:14:06.423Z,76.45
2023-03-25T14:19:18.088Z,75.65
2023-03-25T14:24:36.642Z,74.59
2023-03-25T14:30:01.235Z,74.24
2023-03-25T14:35:38.413Z,73.37
2023-03-25T14:46:11.329Z,71.63
2023-03-25T14:51:27.554Z,70.71
2023-03-25T14:56:44.299Z,66.84
2023-03-25T15:01:48.864Z,68.01
2023-03-25T15:06:53.444Z,70.57
2023-03-25T15:12:02.551Z,72.97
2023-03-25T15:17:11.090Z,75.79
2023-03-25T15:22:23.330Z,77.67
2023-03-25T15:27:56.003Z,79.21
2023-03-25T15:33:40.631Z,80.67
2023-03-25T15:38:54.300Z,81.62
2023-03-25T15:44:27.749Z,82.86
2023-03-25T15:50:06.574Z,83.76
2023-03-25T15:55:17.762Z,84.73
2023-03-25T16:00:27.894Z,85.48
2023-03-25T16:05:34.506Z,85.81
2023-03-25T16:10:39.788Z,86.45
2023-03-25T16:15:45.148Z,86.43
2023-03-25T16:20:59.564Z,86.50
2023-03-25T16:26:04.980Z,86.99
2023-03-25T16:31:42.988Z,87.10
2023-03-25T16:36:55.686Z,87.56
2023-03-25T16:42:37.370Z,87.95
2023-03-25T16:48:09.864Z,87.94
2023-03-25T16:53:16.212Z,88.13
2023-03-25T16:58:44.212Z,88.71
2023-03-25T17:04:01.170Z,88.83
2023-03-25T17:09:46.664Z,89.56
2023-03-25T17:15:07.081Z,89.31
2023-03-25T17:20:19.673Z,90.15
2023-03-25T17:25:35.023Z,90.09
2023-03-25T17:30:45.293Z,90.68
2023-03-25T17:35:55.173Z,90.97
2023-03-25T17:41:17.937Z,91.47
2023-03-25T17:46:52.820Z,91.91
2023-03-25T17:51:58.339Z,92.14
2023-03-25T17:57:09.377Z,92.23
2023-03-25T18:02:17.437Z,92.52
2023-03-25T18:07:21.551Z,92.61
2023-03-25T18:12:28.889Z,93.17
2023-03-25T18:17:55.594Z,93.17
2023-03-25T18:23:02.161Z,92.70
2023-03-25T18:28:11.485Z,92.31
2023-03-25T18:33:18.531Z,92.03
2023-03-25T18:38:24.649Z,91.51
2023-03-25T18:43:28.408Z,91.31
2023-03-25T18:48:37.756Z,91.66
2023-03-25T18:54:01.687Z,92.19
2023-03-25T18:59:05.440Z,91.88
2023-03-25T19:04:32.094Z,92.39
2023-03-25T19:09:41.777Z,92.32
2023-03-25T19:14:45.522Z,92.66
2023-03-25T19:19:49.730Z,93.17
2023-03-25T19:25:16.028Z,93.39
2023-03-25T19:30:21.850Z,93.28
2023-03-25T19:35:43.003Z,93.39
2023-03-25T19:40:52.171Z,93.17
2023-03-25T19:46:19.251Z,93.18
2023-03-25T19:51:22.864Z,93.11
2023-03-25T19:56:26.591Z,93.50
2023-03-25T20:02:10.336Z,93.18
2023-03-25T20:07:26.480Z,92.67
2023-03-25T20:12:33.328Z,93.05
2023-03-25T20:17:37.713Z,92.94
2023-03-25T20:22:44.385Z,93.21
2023-03-25T20:28:08.456Z,93.06
2023-03-25T20:33:12.335Z,93.42
2023-03-25T20:38:50.491Z,93.69
2023-03-25T20:44:02.270Z,92.92
2023-03-25T20:49:14.233Z,93.86
2023-03-25T20:54:19.834Z,93.85
2023-03-25T20:59:48.758Z,93.86
2023-03-25T21:05:01.988Z,93.72
2023-03-25T21:10:31.315Z,94.08
2023-03-25T21:15:58.880Z,93.81
2023-03-25T21:21:24.324Z,93.97
2023-03-25T21:26:39.210Z,94.54
2023-03-25T21:32:25.145Z,94.41
2023-03-25T21:37:59.333Z,93.77
2023-03-25T21:43:04.968Z,93.76
2023-03-25T21:48:32.511Z,94.06
2023-03-25T21:53:45.156Z,94.35
2023-03-25T21:59:09.205Z,94.13
2023-03-25T22:04:15.942Z,93.91
2023-03-25T22:09:19.417Z,94.80
2023-03-25T22:14:23.569Z,96.12
2023-03-25T22:19:27.340Z,97.37
2023-03-25T22:25:04.823Z,98.28
2023-03-25T22:30:15.812Z,98.72
2023-03-25T22:35:21.803Z,98.77
2023-03-25T22:40:28.874Z,98.84
2023-03-25T22:45:34.718Z,98.62
2023-03-25T22:50:44.616Z,97.95
2023-03-25T22:56:33.976Z,97.45
2023-03-25T23:01:48.006Z,97.35
2023-03-25T23:07:04.768Z,97.02
2023-03-25T23:12:34.262Z,97.18
2023-03-25T23:18:11.514Z,97.10
2023-03-25T23:23:22.480Z,97.38
2023-03-25T23:29:03.222Z,96.50
2023-03-25T23:34:12.616Z,97.03
2023-03-25T23:39:22.649Z,96.77
2023-03-25T23:45:06.811Z,97.02
2023-03-25T23:50:18.619Z,96.83
2023-03-25T23:55:37.662Z,96.56
